Time;durP1;ratioP1;P1;durP2;ratioP2;P2;SDS_P1;SDS_P2;PMS_P1;PMS_P2;Temp;Humidity;BMP_temperature;BMP_pressure;BME280_temperature;BME280_humidity;BME280_pressure;Samples;Min_cycle;Max_cycle;Signal;HPM_P1;HPM_P2
2021/09/17 00:00:24;;;;;;;40.95;24.52;;;16.80;99.90;;;;;;5093402;28;20110;-80
2021/09/17 00:02:50;;;;;;;40.92;26.83;;;16.80;99.90;;;;;;5094054;28;20489;-80
2021/09/17 00:05:16;;;;;;;37.53;24.80;;;16.80;99.90;;;;;;5084191;28;20024;-80
2021/09/17 00:07:41;;;;;;;46.50;26.30;;;16.90;99.90;;;;;;5092821;28;20016;-80
2021/09/17 00:10:08;;;;;;;36.40;22.95;;;16.90;99.90;;;;;;5090241;28;20028;-80
2021/09/17 00:12:34;;;;;;;36.17;23.27;;;16.90;99.90;;;;;;5094118;28;20031;-80
2021/09/17 00:14:59;;;;;;;36.63;23.10;;;16.90;99.90;;;;;;5092980;28;20024;-80
2021/09/17 00:17:25;;;;;;;39.75;25.27;;;16.90;99.90;;;;;;5093751;28;20460;-81
2021/09/17 00:19:50;;;;;;;39.80;24.55;;;17.00;99.90;;;;;;5076115;28;20020;-81
2021/09/17 00:22:16;;;;;;;39.88;25.83;;;17.00;99.90;;;;;;5093032;28;20024;-80
2021/09/17 00:24:42;;;;;;;44.05;27.35;;;17.00;99.90;;;;;;5092735;28;20149;-79
2021/09/17 00:27:07;;;;;;;41.63;25.75;;;17.00;99.90;;;;;;5092551;28;20466;-81
2021/09/17 00:29:33;;;;;;;46.65;28.23;;;17.00;99.90;;;;;;5091502;28;20093;-81
2021/09/17 00:31:59;;;;;;;38.28;24.52;;;17.00;99.90;;;;;;5093333;28;20024;-81
2021/09/17 00:34:25;;;;;;;40.47;25.50;;;17.00;99.90;;;;;;5091785;28;20458;-80
2021/09/17 00:36:51;;;;;;;42.78;26.15;;;17.00;99.90;;;;;;5093661;28;20047;-80
2021/09/17 00:39:16;;;;;;;44.20;26.58;;;17.00;99.90;;;;;;5093488;28;20118;-81
2021/09/17 00:41:43;;;;;;;44.58;28.75;;;17.00;99.90;;;;;;5091316;28;20040;-81
2021/09/17 00:44:10;;;;;;;43.78;27.40;;;16.90;99.90;;;;;;5092191;28;20050;-81
2021/09/17 00:46:36;;;;;;;36.65;25.48;;;16.90;99.90;;;;;;5092373;28;20107;-80
2021/09/17 00:49:02;;;;;;;41.40;27.23;;;16.90;99.90;;;;;;5087052;28;20349;-81
2021/09/17 00:51:28;;;;;;;43.53;26.38;;;16.90;99.90;;;;;;5089785;28;20393;-80
2021/09/17 00:53:54;;;;;;;39.15;24.38;;;16.80;99.90;;;;;;5093347;28;20107;-81
2021/09/17 00:56:20;;;;;;;33.60;22.92;;;16.80;99.90;;;;;;5090583;28;20024;-80
2021/09/17 00:58:46;;;;;;;36.33;23.55;;;16.80;99.90;;;;;;5090421;28;20132;-80
2021/09/17 01:01:12;;;;;;;34.95;24.35;;;16.80;99.90;;;;;;5083357;28;20036;-80
2021/09/17 01:03:38;;;;;;;39.08;24.90;;;16.80;99.90;;;;;;5091977;28;20026;-80
2021/09/17 01:06:04;;;;;;;35.75;23.55;;;16.70;99.90;;;;;;5087744;28;20028;-80
2021/09/17 01:08:31;;;;;;;34.97;23.50;;;16.70;99.90;;;;;;5093229;28;20137;-80
2021/09/17 01:10:58;;;;;;;33.20;21.77;;;16.60;99.90;;;;;;5092205;28;20031;-80
2021/09/17 01:13:24;;;;;;;33.60;21.95;;;16.60;99.90;;;;;;5091793;28;20460;-80
2021/09/17 01:15:50;;;;;;;33.67;21.58;;;16.60;99.90;;;;;;5090592;28;20028;-80
2021/09/17 01:18:15;;;;;;;32.33;22.05;;;16.60;99.90;;;;;;5091695;28;20047;-81
2021/09/17 01:20:41;;;;;;;37.08;22.05;;;16.60;99.90;;;;;;5090789;28;20020;-81
2021/09/17 01:23:07;;;;;;;37.63;23.92;;;16.60;99.90;;;;;;5090897;28;20028;-80
2021/09/17 01:25:33;;;;;;;34.88;20.70;;;16.60;99.90;;;;;;5076418;28;20016;-80
2021/09/17 01:27:58;;;;;;;32.15;21.92;;;16.60;99.90;;;;;;5092819;28;20099;-80
2021/09/17 01:30:24;;;;;;;37.15;22.90;;;16.50;99.90;;;;;;5090855;28;20059;-80
2021/09/17 01:32:50;;;;;;;37.78;22.27;;;16.50;99.90;;;;;;5089743;28;20016;-80
2021/09/17 01:35:19;;;;;;;38.15;24.88;;;16.40;99.90;;;;;;5080490;28;20039;-80
2021/09/17 01:37:46;;;;;;;38.97;24.70;;;16.40;99.90;;;;;;5092852;28;20032;-80
2021/09/17 01:40:13;;;;;;;38.75;24.27;;;16.30;99.90;;;;;;5080539;28;20522;-80
2021/09/17 01:42:39;;;;;;;39.22;24.45;;;16.20;99.90;;;;;;5092830;28;20049;-80
2021/09/17 01:45:06;;;;;;;35.90;24.50;;;16.20;99.90;;;;;;5088636;28;20370;-79
2021/09/17 01:47:32;;;;;;;45.17;25.55;;;16.20;99.90;;;;;;5088372;28;20534;-80
2021/09/17 01:49:57;;;;;;;38.50;24.67;;;16.20;99.90;;;;;;5081751;28;20099;-80
2021/09/17 01:52:23;;;;;;;36.88;25.52;;;16.20;99.90;;;;;;5096872;28;20035;-80
2021/09/17 01:54:49;;;;;;;43.67;27.10;;;16.20;99.90;;;;;;5086722;28;20068;-79
2021/09/17 01:57:14;;;;;;;41.70;27.70;;;16.10;99.90;;;;;;5096890;28;20047;-80
2021/09/17 01:59:40;;;;;;;46.15;27.67;;;16.10;99.90;;;;;;5094507;28;20023;-80
2021/09/17 02:02:06;;;;;;;42.55;26.48;;;16.00;99.90;;;;;;5095303;28;20370;-81
2021/09/17 02:04:31;;;;;;;46.20;28.10;;;16.00;99.90;;;;;;5089630;28;20021;-80
2021/09/17 02:06:57;;;;;;;45.53;30.67;;;16.00;99.90;;;;;;5087183;28;20115;-80
2021/09/17 02:09:23;;;;;;;43.42;29.30;;;15.90;99.90;;;;;;5094939;28;20070;-81
2021/09/17 02:11:48;;;;;;;41.63;28.02;;;15.90;99.90;;;;;;5094793;28;20021;-80
2021/09/17 02:14:14;;;;;;;45.13;29.73;;;15.90;99.90;;;;;;5096185;28;20531;-80
2021/09/17 02:16:41;;;;;;;39.15;28.25;;;15.80;99.90;;;;;;5096046;28;20020;-80
2021/09/17 02:19:07;;;;;;;40.78;27.35;;;15.90;99.90;;;;;;5094935;28;20035;-80
2021/09/17 02:21:33;;;;;;;36.65;24.13;;;15.90;99.90;;;;;;5095733;28;20389;-79
2021/09/17 02:23:59;;;;;;;30.65;22.48;;;15.80;99.90;;;;;;5094418;28;20032;-80
2021/09/17 02:26:26;;;;;;;32.42;20.70;;;15.80;99.90;;;;;;5095397;28;20493;-80
2021/09/17 02:28:51;;;;;;;27.63;20.15;;;15.70;99.90;;;;;;5090722;28;20378;-80
2021/09/17 02:31:17;;;;;;;31.42;21.73;;;15.60;99.90;;;;;;5085549;28;20020;-80
2021/09/17 02:33:44;;;;;;;29.85;20.20;;;15.60;99.90;;;;;;5096238;28;20058;-80
2021/09/17 02:36:10;;;;;;;28.38;19.75;;;15.60;99.90;;;;;;5093590;28;20099;-80
2021/09/17 02:38:36;;;;;;;31.10;20.27;;;15.50;99.90;;;;;;5079078;28;20074;-80
2021/09/17 02:41:02;;;;;;;27.38;20.45;;;15.50;99.90;;;;;;5088294;28;20040;-80
2021/09/17 02:43:28;;;;;;;27.13;20.33;;;15.50;99.90;;;;;;5094622;28;20111;-80
2021/09/17 02:45:53;;;;;;;29.95;19.38;;;15.50;99.90;;;;;;5093660;28;20112;-80
2021/09/17 02:48:19;;;;;;;27.38;19.35;;;15.50;99.90;;;;;;5093196;28;20644;-80
2021/09/17 02:50:45;;;;;;;25.52;16.75;;;15.40;99.90;;;;;;5084725;28;20023;-80
2021/09/17 02:53:10;;;;;;;19.45;15.35;;;15.40;99.90;;;;;;5093835;28;20099;-80
2021/09/17 02:55:36;;;;;;;20.88;15.32;;;15.30;99.90;;;;;;5080661;28;20027;-80
2021/09/17 02:58:05;;;;;;;20.00;12.63;;;15.20;99.90;;;;;;5095158;28;20039;-80
2021/09/17 03:00:31;;;;;;;12.25;9.65;;;15.30;99.90;;;;;;5091959;28;20040;-80
2021/09/17 03:02:57;;;;;;;12.90;10.63;;;15.10;99.90;;;;;;5094098;28;20868;-80
2021/09/17 03:05:23;;;;;;;16.35;12.80;;;15.00;99.90;;;;;;5094758;28;20074;-79
2021/09/17 03:07:49;;;;;;;16.40;12.82;;;15.00;99.90;;;;;;5093861;28;20077;-80
2021/09/17 03:10:15;;;;;;;20.67;13.43;;;15.00;99.90;;;;;;5085008;28;20114;-80
2021/09/17 03:12:41;;;;;;;19.55;14.10;;;15.00;99.90;;;;;;5095335;28;20105;-80
2021/09/17 03:15:07;;;;;;;19.80;14.35;;;15.00;99.90;;;;;;5093024;28;20062;-80
2021/09/17 03:17:33;;;;;;;20.27;14.13;;;15.00;99.90;;;;;;5095318;28;20031;-80
2021/09/17 03:19:59;;;;;;;23.77;15.73;;;15.00;99.90;;;;;;5093793;28;20020;-80
2021/09/17 03:22:25;;;;;;;22.40;15.32;;;15.00;99.90;;;;;;5093804;28;20035;-80
2021/09/17 03:24:50;;;;;;;21.05;14.38;;;15.00;99.90;;;;;;5094225;28;20020;-80
2021/09/17 03:27:16;;;;;;;21.80;15.95;;;15.00;99.90;;;;;;5094741;28;20116;-80
2021/09/17 03:29:42;;;;;;;22.15;16.05;;;15.00;99.90;;;;;;5085303;28;20454;-80
2021/09/17 03:32:08;;;;;;;18.25;14.73;;;15.00;99.90;;;;;;5093664;28;20047;-80
2021/09/17 03:34:33;;;;;;;21.73;17.35;;;15.00;99.90;;;;;;5092826;28;20478;-80
2021/09/17 03:37:00;;;;;;;25.55;16.63;;;15.00;99.90;;;;;;5093693;28;20024;-80
2021/09/17 03:39:26;;;;;;;20.65;15.73;;;14.90;99.90;;;;;;5093456;28;20450;-80
2021/09/17 03:41:51;;;;;;;22.02;15.65;;;14.80;99.90;;;;;;5092071;28;20126;-80
2021/09/17 03:44:17;;;;;;;18.05;14.25;;;14.80;99.90;;;;;;5094232;28;20496;-80
2021/09/17 03:46:43;;;;;;;18.60;15.35;;;14.80;99.90;;;;;;5093563;28;20366;-80
2021/09/17 03:49:09;;;;;;;19.25;14.70;;;14.80;99.90;;;;;;5086408;28;20067;-80
2021/09/17 03:51:35;;;;;;;20.13;14.43;;;14.80;99.90;;;;;;5086646;28;20020;-80
2021/09/17 03:54:01;;;;;;;17.77;13.63;;;14.70;99.90;;;;;;5091826;28;20489;-80
2021/09/17 03:56:26;;;;;;;18.48;14.65;;;14.60;99.90;;;;;;5092794;28;20397;-80
2021/09/17 03:58:52;;;;;;;17.92;12.38;;;14.60;99.90;;;;;;5086647;28;20020;-80
2021/09/17 04:01:18;;;;;;;14.75;11.57;;;14.50;99.90;;;;;;5083610;28;20028;-80
2021/09/17 04:03:43;;;;;;;15.85;11.52;;;14.50;99.90;;;;;;5094278;28;20024;-80
2021/09/17 04:06:09;;;;;;;14.10;10.93;;;14.40;99.90;;;;;;5091302;28;20109;-80
2021/09/17 04:08:35;;;;;;;16.13;10.63;;;14.40;99.90;;;;;;5092143;28;20030;-80
2021/09/17 04:11:01;;;;;;;14.68;11.18;;;14.30;99.90;;;;;;5090313;28;20047;-80
2021/09/17 04:13:26;;;;;;;12.63;9.65;;;14.30;99.90;;;;;;5087260;28;20024;-80
2021/09/17 04:15:52;;;;;;;12.50;9.10;;;14.20;99.90;;;;;;5085035;28;20105;-80
2021/09/17 04:18:18;;;;;;;11.20;9.18;;;14.30;99.90;;;;;;5106922;28;20056;-80
2021/09/17 04:20:43;;;;;;;11.85;9.57;;;14.20;99.90;;;;;;5098472;28;20036;-80
2021/09/17 04:23:09;;;;;;;11.95;8.90;;;14.20;99.90;;;;;;5108377;28;20073;-79
2021/09/17 04:25:35;;;;;;;9.80;7.82;;;14.20;99.90;;;;;;5091042;28;20032;-80
2021/09/17 04:28:01;;;;;;;14.13;9.15;;;14.20;99.90;;;;;;5092889;28;20021;-80
2021/09/17 04:30:27;;;;;;;12.70;10.55;;;14.20;99.90;;;;;;5104755;28;20060;-80
2021/09/17 04:32:53;;;;;;;10.05;8.57;;;14.20;99.90;;;;;;5088328;28;20020;-80
2021/09/17 04:35:19;;;;;;;8.20;7.40;;;14.30;99.90;;;;;;5091274;28;20069;-80
2021/09/17 04:37:56;;;;;;;9.82;6.75;;;14.20;99.90;;;;;;5090289;28;20018;-80
2021/09/17 04:40:23;;;;;;;15.70;6.63;;;14.10;99.90;;;;;;5089448;28;20097;-80
2021/09/17 04:42:49;;;;;;;9.02;6.28;;;14.00;99.90;;;;;;5091240;28;20022;-80
2021/09/17 04:45:14;;;;;;;5.75;5.15;;;14.00;99.90;;;;;;5075732;28;20122;-79
2021/09/17 04:47:40;;;;;;;6.88;6.18;;;14.00;99.90;;;;;;5090555;28;20028;-79
2021/09/17 04:50:08;;;;;;;6.53;5.10;;;14.00;99.90;;;;;;5090198;28;20093;-79
2021/09/17 04:52:37;;;;;;;7.85;4.93;;;14.00;99.90;;;;;;5090475;28;20028;-79
2021/09/17 04:55:04;;;;;;;6.40;5.80;;;14.00;99.90;;;;;;5100420;28;20032;-79
2021/09/17 04:57:32;;;;;;;5.55;4.65;;;14.00;99.90;;;;;;5090620;28;20028;-80
2021/09/17 04:59:58;;;;;;;4.35;3.55;;;13.90;99.90;;;;;;5081889;28;20036;-79
2021/09/17 05:02:24;;;;;;;4.50;3.40;;;13.80;99.90;;;;;;5091319;28;20081;-79
2021/09/17 05:04:49;;;;;;;3.55;2.63;;;13.70;99.90;;;;;;5084377;28;20062;-79
2021/09/17 05:07:15;;;;;;;3.40;3.05;;;13.60;99.90;;;;;;5093440;28;20033;-78
2021/09/17 05:09:41;;;;;;;5.05;3.08;;;13.50;99.90;;;;;;5082331;28;20490;-79
2021/09/17 05:12:06;;;;;;;4.57;3.15;;;13.30;99.90;;;;;;5088778;28;20024;-78
2021/09/17 05:14:33;;;;;;;4.35;3.28;;;13.40;99.90;;;;;;5090340;28;20107;-77
2021/09/17 05:16:59;;;;;;;5.68;4.38;;;13.30;99.90;;;;;;5088606;28;20393;-79
2021/09/17 05:19:25;;;;;;;6.97;3.72;;;13.30;99.90;;;;;;5085404;28;20032;-80
2021/09/17 05:21:55;;;;;;;4.43;2.95;;;13.30;99.90;;;;;;5088648;28;20040;-79
2021/09/17 05:24:22;;;;;;;5.20;3.15;;;13.20;99.90;;;;;;5089459;28;20074;-79
2021/09/17 05:26:48;;;;;;;3.55;2.88;;;13.10;99.90;;;;;;5091061;28;20438;-79
2021/09/17 05:29:13;;;;;;;3.60;2.75;;;13.10;99.90;;;;;;5086672;28;20027;-80
2021/09/17 05:31:39;;;;;;;3.50;3.10;;;13.10;99.90;;;;;;5084954;28;20126;-80
2021/09/17 05:34:05;;;;;;;4.30;2.92;;;13.10;99.90;;;;;;5090007;28;20028;-81
2021/09/17 05:36:30;;;;;;;5.95;3.35;;;13.10;99.90;;;;;;5106358;28;20454;-82
2021/09/17 05:38:56;;;;;;;4.18;3.20;;;13.20;99.90;;;;;;5088776;28;20020;-82
2021/09/17 05:41:22;;;;;;;3.97;2.70;;;13.10;99.90;;;;;;5090866;28;20456;-82
2021/09/17 05:43:48;;;;;;;2.92;2.65;;;13.10;99.90;;;;;;5097271;28;20017;-82
2021/09/17 05:46:14;;;;;;;3.60;2.90;;;13.10;99.90;;;;;;5084500;28;20035;-81
2021/09/17 05:48:39;;;;;;;4.55;3.42;;;13.20;99.90;;;;;;5077803;28;20020;-81
2021/09/17 05:51:05;;;;;;;2.97;2.78;;;13.20;99.90;;;;;;5080917;28;20039;-81
2021/09/17 05:53:30;;;;;;;2.90;2.60;;;13.20;99.90;;;;;;5084107;28;20020;-81
2021/09/17 05:55:56;;;;;;;3.20;2.88;;;13.20;99.90;;;;;;5090756;28;20028;-81
2021/09/17 05:58:27;;;;;;;3.10;2.33;;;13.30;99.90;;;;;;5083595;28;20024;-81
2021/09/17 06:00:53;;;;;;;3.83;2.22;;;13.20;99.90;;;;;;5077698;28;20040;-81
2021/09/17 06:03:19;;;;;;;4.13;2.30;;;13.30;99.90;;;;;;5080246;28;20016;-82
2021/09/17 06:05:44;;;;;;;2.90;2.60;;;13.30;99.90;;;;;;5079059;28;20497;-82
2021/09/17 06:08:10;;;;;;;2.30;2.10;;;13.30;99.90;;;;;;5075474;28;20085;-81
2021/09/17 06:10:36;;;;;;;3.20;2.70;;;13.30;99.90;;;;;;5078910;28;20035;-81
2021/09/17 06:13:01;;;;;;;3.10;2.33;;;13.30;99.90;;;;;;5082100;28;20016;-81
2021/09/17 06:15:27;;;;;;;3.40;3.10;;;13.20;99.90;;;;;;5080524;28;20072;-81
2021/09/17 06:17:53;;;;;;;2.80;2.60;;;13.10;99.90;;;;;;5082620;28;20047;-81
2021/09/17 06:20:19;;;;;;;3.05;2.53;;;13.10;99.90;;;;;;5093882;28;20032;-81
2021/09/17 06:22:45;;;;;;;2.67;2.47;;;13.10;99.90;;;;;;5085094;28;20435;-81
2021/09/17 06:25:15;;;;;;;2.92;2.28;;;13.10;99.90;;;;;;5094484;28;20390;-82
2021/09/17 06:27:41;;;;;;;4.10;2.63;;;13.10;99.90;;;;;;5076472;28;20486;-82
2021/09/17 06:30:07;;;;;;;3.42;2.63;;;13.00;99.90;;;;;;5082116;28;20066;-81
2021/09/17 06:32:33;;;;;;;2.60;2.17;;;13.00;99.90;;;;;;5082448;28;20028;-81
2021/09/17 06:34:58;;;;;;;3.63;2.55;;;13.00;99.90;;;;;;5085288;28;20044;-81
2021/09/17 06:37:24;;;;;;;3.28;3.00;;;13.00;99.90;;;;;;5098740;28;20024;-81
2021/09/17 06:39:50;;;;;;;2.83;2.42;;;13.00;99.90;;;;;;5083808;28;20030;-81
2021/09/17 06:42:15;;;;;;;2.45;2.25;;;13.10;99.90;;;;;;5084812;28;20033;-81
2021/09/17 06:44:41;;;;;;;4.13;3.10;;;13.10;99.90;;;;;;5091178;28;20078;-81
2021/09/17 06:47:07;;;;;;;3.35;2.50;;;13.10;99.90;;;;;;5086571;28;20032;-81
2021/09/17 06:49:32;;;;;;;2.63;2.13;;;13.10;99.90;;;;;;5083931;28;20025;-81
2021/09/17 06:51:58;;;;;;;6.28;3.03;;;13.10;99.90;;;;;;5086618;28;20055;-81
2021/09/17 06:54:24;;;;;;;4.45;2.78;;;13.20;99.90;;;;;;5100369;28;20074;-81
2021/09/17 06:56:49;;;;;;;4.57;2.20;;;13.10;99.90;;;;;;5081807;28;20028;-81
2021/09/17 06:59:15;;;;;;;2.72;2.53;;;13.10;99.90;;;;;;5111243;28;20027;-81
2021/09/17 07:01:40;;;;;;;3.90;2.80;;;13.20;99.90;;;;;;5076173;28;20393;-81
2021/09/17 07:04:06;;;;;;;2.97;2.65;;;13.20;99.90;;;;;;5094358;28;20039;-81
2021/09/17 07:06:33;;;;;;;3.78;3.00;;;13.30;99.90;;;;;;5111164;28;20185;-82
2021/09/17 07:08:59;;;;;;;4.63;3.60;;;13.30;99.90;;;;;;5085380;28;20021;-81
2021/09/17 07:11:25;;;;;;;4.55;3.42;;;13.20;99.90;;;;;;5073788;28;20040;-81
2021/09/17 07:13:50;;;;;;;3.47;3.17;;;13.30;99.90;;;;;;5075137;28;20044;-81
2021/09/17 07:16:16;;;;;;;6.38;4.47;;;13.30;99.90;;;;;;5079292;28;20471;-81
2021/09/17 07:18:42;;;;;;;5.18;4.43;;;13.30;99.90;;;;;;5093943;28;20020;-81
2021/09/17 07:21:07;;;;;;;4.30;3.90;;;13.30;99.90;;;;;;5095007;28;20110;-81
2021/09/17 07:23:33;;;;;;;8.43;5.38;;;13.30;99.90;;;;;;5095235;28;20024;-81
2021/09/17 07:25:59;;;;;;;6.80;4.80;;;13.30;99.90;;;;;;5110663;28;20446;-81
2021/09/17 07:28:24;;;;;;;7.65;4.65;;;13.30;99.90;;;;;;5108909;28;20028;-81
2021/09/17 07:30:50;;;;;;;6.93;5.20;;;13.30;99.90;;;;;;5094996;28;20111;-81
2021/09/17 07:33:16;;;;;;;5.53;4.82;;;13.30;99.90;;;;;;5094940;28;20035;-82
2021/09/17 07:35:41;;;;;;;7.10;4.45;;;13.30;99.90;;;;;;5094281;28;20051;-81
2021/09/17 07:38:07;;;;;;;7.30;4.80;;;13.30;99.90;;;;;;5093565;28;20031;-81
2021/09/17 07:40:33;;;;;;;7.03;5.97;;;13.30;99.90;;;;;;5094653;28;20071;-81
2021/09/17 07:42:59;;;;;;;6.57;5.10;;;13.30;99.90;;;;;;5096968;28;20031;-81
2021/09/17 07:45:25;;;;;;;8.48;5.20;;;13.30;99.90;;;;;;5081913;28;20025;-81
2021/09/17 07:47:51;;;;;;;9.23;6.03;;;13.40;99.90;;;;;;5079559;28;20049;-81
2021/09/17 07:50:18;;;;;;;8.27;5.47;;;13.50;99.90;;;;;;5073713;28;20509;-81
2021/09/17 07:52:44;;;;;;;6.57;5.53;;;13.40;99.90;;;;;;5084123;28;20138;-81
2021/09/17 07:55:10;;;;;;;8.15;7.22;;;13.50;99.90;;;;;;5110155;28;20130;-81
2021/09/17 07:57:37;;;;;;;9.38;7.15;;;13.50;99.90;;;;;;5094521;28;20115;-81
2021/09/17 08:00:07;;;;;;;5.10;4.60;;;13.50;99.90;;;;;;5073981;28;20024;-81
2021/09/17 08:02:33;;;;;;;6.82;5.10;;;13.40;99.90;;;;;;5074226;28;20020;-81
2021/09/17 08:04:59;;;;;;;8.27;5.70;;;13.40;99.90;;;;;;5092093;28;20020;-81
2021/09/17 08:07:24;;;;;;;5.70;5.07;;;13.40;99.90;;;;;;5108337;28;20081;-81
2021/09/17 08:09:50;;;;;;;5.20;3.50;;;13.30;99.90;;;;;;5109912;28;20512;-82
2021/09/17 08:12:15;;;;;;;5.78;4.07;;;13.30;99.90;;;;;;5109862;28;20484;-81
2021/09/17 08:14:41;;;;;;;6.57;4.93;;;13.40;99.90;;;;;;5093765;28;20382;-81
2021/09/17 08:17:07;;;;;;;4.78;4.05;;;13.40;99.90;;;;;;5109701;28;20059;-82
2021/09/17 08:19:32;;;;;;;5.22;4.05;;;13.40;99.90;;;;;;5095018;27;20058;-81
2021/09/17 08:21:58;;;;;;;4.93;4.03;;;13.50;99.90;;;;;;5072254;28;20496;-81
2021/09/17 08:24:24;;;;;;;5.80;4.13;;;13.50;99.90;;;;;;5083281;28;20073;-82
2021/09/17 08:26:52;;;;;;;5.18;4.00;;;13.50;99.90;;;;;;5088137;28;20481;-81
2021/09/17 08:29:19;;;;;;;5.90;4.47;;;13.50;99.90;;;;;;5088157;28;20031;-81
2021/09/17 08:31:45;;;;;;;5.18;3.78;;;13.50;99.90;;;;;;5092644;28;20032;-82
2021/09/17 08:34:11;;;;;;;6.88;3.88;;;13.60;99.90;;;;;;5086655;28;20025;-82
2021/09/17 08:36:38;;;;;;;7.88;4.85;;;13.70;99.90;;;;;;5072031;28;20028;-81
2021/09/17 08:39:05;;;;;;;4.43;3.38;;;13.80;99.90;;;;;;5092117;28;20015;-82
2021/09/17 08:41:31;;;;;;;5.60;4.25;;;13.80;99.90;;;;;;5093255;28;20028;-81
2021/09/17 08:43:57;;;;;;;5.55;4.57;;;13.80;99.90;;;;;;5093517;28;20096;-82
2021/09/17 08:46:23;;;;;;;4.85;4.32;;;13.80;99.90;;;;;;5109243;28;20032;-81
2021/09/17 08:48:49;;;;;;;9.40;8.02;;;13.80;99.90;;;;;;5094167;28;20032;-81
2021/09/17 08:51:16;;;;;;;14.57;10.50;;;13.90;99.90;;;;;;5074399;28;20115;-82
2021/09/17 08:53:42;;;;;;;7.43;4.72;;;13.90;99.90;;;;;;5092076;28;20020;-81
2021/09/17 08:56:12;;;;;;;5.65;4.13;;;13.80;99.90;;;;;;5092350;28;20039;-81
2021/09/17 08:58:37;;;;;;;4.22;3.63;;;13.80;99.90;;;;;;5091832;28;20039;-81
2021/09/17 09:01:03;;;;;;;5.43;4.93;;;13.80;99.90;;;;;;5092730;28;20046;-81
2021/09/17 09:03:34;;;;;;;4.45;3.33;;;13.80;99.90;;;;;;5093092;28;20374;-82
2021/09/17 09:06:10;;;;;;;4.28;3.28;;;13.80;99.90;;;;;;5093118;28;20378;-82
2021/09/17 09:08:38;;;;;;;4.95;4.25;;;13.80;99.90;;;;;;5093078;28;20020;-82
2021/09/17 09:11:14;;;;;;;4.80;4.40;;;13.80;99.90;;;;;;5093179;28;20020;-82
2021/09/17 09:14:08;;;;;;;6.40;5.43;;;13.80;99.90;;;;;;5087704;28;20016;-82
2021/09/17 09:16:37;;;;;;;4.60;3.60;;;13.80;99.90;;;;;;5072406;28;20111;-82
2021/09/17 09:19:21;;;;;;;5.80;3.20;;;13.80;99.90;;;;;;5072902;28;20060;-82
2021/09/17 09:22:09;;;;;;;4.00;3.60;;;13.80;99.90;;;;;;5100744;28;20098;-82
2021/09/17 09:24:42;;;;;;;3.90;3.60;;;13.80;99.90;;;;;;5092908;28;20031;-82
2021/09/17 09:27:20;;;;;;;4.07;3.42;;;13.70;99.90;;;;;;5093042;28;20022;-81
2021/09/17 09:29:52;;;;;;;3.85;3.53;;;13.90;99.90;;;;;;5093312;28;20477;-81
2021/09/17 09:32:32;;;;;;;5.10;4.28;;;13.90;99.90;;;;;;5090193;28;20490;-82
2021/09/17 09:35:03;;;;;;;4.75;4.03;;;13.80;99.90;;;;;;5080296;28;20028;-82
2021/09/17 09:37:32;;;;;;;6.32;5.60;;;13.90;99.90;;;;;;5084312;28;20028;-81
2021/09/17 09:40:02;;;;;;;5.47;4.63;;;13.90;99.90;;;;;;5071156;28;20021;-82
2021/09/17 09:42:43;;;;;;;5.63;4.97;;;13.90;99.90;;;;;;5075701;28;20024;-81
2021/09/17 09:45:24;;;;;;;5.75;5.13;;;14.00;99.90;;;;;;5080080;28;20486;-82
2021/09/17 09:47:51;;;;;;;6.15;5.07;;;14.00;99.90;;;;;;5092493;28;20020;-82
2021/09/17 09:50:22;;;;;;;7.57;6.38;;;14.10;99.90;;;;;;5087941;28;20040;-82
2021/09/17 09:52:49;;;;;;;7.20;6.50;;;14.20;99.90;;;;;;5092170;28;20455;-82
2021/09/17 09:55:15;;;;;;;7.03;6.25;;;14.20;99.90;;;;;;5091961;28;20024;-82
2021/09/17 09:57:42;;;;;;;9.65;8.23;;;14.30;99.90;;;;;;5090796;28;20082;-81
2021/09/17 10:00:10;;;;;;;11.02;9.80;;;14.20;99.90;;;;;;5092117;28;20462;-81
2021/09/17 10:02:37;;;;;;;11.55;8.23;;;14.30;99.90;;;;;;5108323;28;20029;-81
2021/09/17 10:05:08;;;;;;;8.23;6.35;;;14.20;99.90;;;;;;5092165;28;20028;-81
2021/09/17 10:07:35;;;;;;;9.38;8.27;;;14.30;99.90;;;;;;5110714;28;20095;-81
2021/09/17 10:10:01;;;;;;;21.23;16.48;;;14.20;99.90;;;;;;5095012;28;20114;-81
2021/09/17 10:12:27;;;;;;;17.27;14.65;;;14.30;99.90;;;;;;5096299;28;20031;-82
2021/09/17 10:14:56;;;;;;;11.38;10.00;;;14.30;99.90;;;;;;5094240;28;20385;-82
2021/09/17 10:17:28;;;;;;;26.85;20.08;;;14.40;99.90;;;;;;5094954;28;20024;-81
2021/09/17 10:19:56;;;;;;;40.10;23.10;;;14.40;99.90;;;;;;5090481;28;20028;-81
2021/09/17 10:22:36;;;;;;;121.35;68.80;;;14.40;99.90;;;;;;5093323;28;20051;-81
2021/09/17 10:25:02;;;;;;;83.57;57.00;;;14.40;99.90;;;;;;5092539;28;20093;-81
2021/09/17 10:27:28;;;;;;;33.58;25.45;;;14.30;99.90;;;;;;5095759;28;20036;-81
2021/09/17 10:29:54;;;;;;;23.75;19.65;;;14.30;99.90;;;;;;5087454;28;20036;-81
2021/09/17 10:32:34;;;;;;;21.88;19.45;;;14.30;99.90;;;;;;5076758;28;20028;-81
2021/09/17 10:35:11;;;;;;;19.25;17.30;;;14.30;99.90;;;;;;5094237;28;20478;-81
2021/09/17 10:37:55;;;;;;;14.13;12.50;;;14.40;99.90;;;;;;5095773;28;20028;-81
2021/09/17 10:40:52;;;;;;;17.60;15.80;;;14.50;99.90;;;;;;5094572;28;20028;-81
2021/09/17 10:43:27;;;;;;;12.95;11.65;;;14.50;99.90;;;;;;5094865;28;20455;-81
2021/09/17 10:46:02;;;;;;;13.38;10.68;;;14.60;99.90;;;;;;5094515;28;20496;-82
2021/09/17 10:48:49;;;;;;;10.57;9.25;;;14.60;99.90;;;;;;5095375;28;20028;-82
2021/09/17 10:51:36;;;;;;;12.00;9.90;;;14.60;99.90;;;;;;5087615;28;20039;-81
2021/09/17 10:54:07;;;;;;;11.88;10.32;;;14.70;99.90;;;;;;5091368;28;20037;-81
2021/09/17 10:57:00;;;;;;;11.40;9.77;;;14.80;99.90;;;;;;5082331;28;20040;-81
2021/09/17 10:59:38;;;;;;;12.18;9.57;;;14.80;99.90;;;;;;5092500;28;20052;-81
2021/09/17 11:02:05;;;;;;;14.35;10.63;;;14.80;99.90;;;;;;5087288;28;20032;-81
2021/09/17 11:05:12;;;;;;;13.50;9.73;;;14.80;99.90;;;;;;5089859;28;20035;-82
2021/09/17 11:07:38;;;;;;;11.98;10.20;;;15.00;99.90;;;;;;5085089;28;20032;-82
2021/09/17 11:10:05;;;;;;;12.15;9.23;;;15.10;99.90;;;;;;5094001;28;20025;-82
2021/09/17 11:12:33;;;;;;;14.25;9.32;;;15.10;99.90;;;;;;5093967;28;20061;-82
2021/09/17 11:15:15;;;;;;;11.77;9.57;;;15.30;99.90;;;;;;5093480;28;20056;-82
2021/09/17 11:17:44;;;;;;;10.98;8.85;;;15.30;99.90;;;;;;5110483;28;20047;-82
2021/09/17 11:20:22;;;;;;;12.50;9.20;;;15.30;99.90;;;;;;5110609;28;20021;-82
2021/09/17 11:23:07;;;;;;;10.93;8.80;;;15.40;99.90;;;;;;5110770;28;20035;-82
2021/09/17 11:25:34;;;;;;;10.15;8.93;;;15.40;99.90;;;;;;5095061;28;20409;-82
2021/09/17 11:28:03;;;;;;;11.32;8.68;;;15.50;99.90;;;;;;5110620;28;20031;-82
2021/09/17 11:30:32;;;;;;;9.73;8.23;;;15.70;99.90;;;;;;5094513;28;20497;-82
2021/09/17 11:32:58;;;;;;;12.35;9.75;;;15.60;99.90;;;;;;5108790;28;20021;-82
2021/09/17 11:35:24;;;;;;;9.50;7.82;;;15.80;99.90;;;;;;5094921;28;20031;-82
2021/09/17 11:37:56;;;;;;;9.38;8.35;;;15.90;99.90;;;;;;5094456;28;20031;-82
2021/09/17 11:40:22;;;;;;;12.52;9.98;;;15.80;99.90;;;;;;5089813;28;20482;-82
2021/09/17 11:42:48;;;;;;;11.68;9.45;;;15.90;99.90;;;;;;5093377;28;20103;-82
2021/09/17 11:45:16;;;;;;;11.57;8.77;;;15.80;99.90;;;;;;5084086;28;20051;-82
2021/09/17 11:47:51;;;;;;;12.95;9.73;;;15.80;99.90;;;;;;5123149;27;20028;-82
2021/09/17 11:50:18;;;;;;;12.05;9.13;;;15.70;99.90;;;;;;5114884;28;20596;-82
2021/09/17 11:52:46;;;;;;;11.30;8.70;;;15.60;99.90;;;;;;5104286;28;20057;-82
2021/09/17 11:55:27;;;;;;;15.27;9.38;;;15.60;99.90;;;;;;5108117;28;20036;-82
2021/09/17 11:57:56;;;;;;;9.27;8.35;;;15.60;99.90;;;;;;5109847;28;20099;-82
2021/09/17 12:00:24;;;;;;;11.07;9.35;;;15.70;99.90;;;;;;5093492;28;20212;-82
2021/09/17 12:02:55;;;;;;;10.05;8.75;;;15.80;99.90;;;;;;5086633;28;20028;-82
2021/09/17 12:05:24;;;;;;;8.23;7.43;;;15.80;99.90;;;;;;5081285;28;20149;-82
2021/09/17 12:07:51;;;;;;;9.50;8.10;;;15.80;99.90;;;;;;5094551;28;20031;-82
2021/09/17 12:10:18;;;;;;;8.95;7.65;;;15.80;99.90;;;;;;5080961;28;20029;-82
2021/09/17 12:12:46;;;;;;;9.82;7.47;;;15.90;99.90;;;;;;5079057;28;20478;-83
2021/09/17 12:15:23;;;;;;;12.85;7.97;;;16.00;99.90;;;;;;5078838;28;20028;-82
2021/09/17 12:17:55;;;;;;;12.52;8.13;;;15.90;99.90;;;;;;5083074;28;20042;-83
2021/09/17 12:20:21;;;;;;;11.15;8.27;;;16.00;99.90;;;;;;5075797;28;20135;-84
2021/09/17 12:22:57;;;;;;;8.65;7.75;;;15.90;99.90;;;;;;5082561;28;20154;-84
2021/09/17 12:25:31;;;;;;;9.82;7.35;;;15.90;99.90;;;;;;5082977;28;20044;-82
2021/09/17 12:28:08;;;;;;;9.32;7.95;;;15.90;99.90;;;;;;5086721;28;20031;-83
2021/09/17 12:30:36;;;;;;;10.38;8.75;;;15.80;99.90;;;;;;5083125;28;20047;-83
2021/09/17 12:33:16;;;;;;;10.32;9.07;;;15.80;99.90;;;;;;5084221;28;20099;-82
2021/09/17 12:35:44;;;;;;;11.90;8.70;;;15.90;99.90;;;;;;5082885;28;20115;-82
2021/09/17 12:38:11;;;;;;;11.55;9.10;;;15.90;99.90;;;;;;5073610;28;20328;-83
2021/09/17 12:40:45;;;;;;;11.20;8.75;;;15.90;99.90;;;;;;5083768;28;20043;-83